ENHD/HAU METAR and TAF weather

Enter ICAO airport designator
Station Type Date Time Source
ENHD METAR 2021/09/16 10:20 UTC NOAA

ENHD 161020Z 00000KT 9999 -RA FEW010 BKN053 15/13 Q1014


Station Type Date Time Source
ENHD Decoded METAR 2021/09/16 10:20 UTC NOAA

Haugesund / Karmoy, Norway (ENHD) 59-21N 005-13E 24M
Sep 16, 2021 - 06:20 AM EDT / 2021.09.16 1020 UTC
Wind: Calm:0
Visibility: greater than 7 mile(s):0
Sky conditions: mostly cloudy
Weather: light rain
Temperature: 59 F (15 C)
Dew Point: 55 F (13 C)
Relative Humidity: 87%
Pressure (altimeter): 29.94 in. Hg (1014 hPa)
ob: ENHD 161020Z 00000KT 9999 -RA FEW010 BKN053 15/13 Q1014
cycle: 10

Station Type Date Time Source
ENHD TAF UTC NOAA

Error!

Example: see airport list